Bakersfield (BFL/KBFL)

Map

Destinations

Information

Location
Bakersfield, CA
Local Time
17:14 / 5:14 pm
GMT Time
00:14 / 12:14 am
Gates
Unassigned
No FAA reported delays
METAR KBFL 222354Z 19004KT 10SM SCT100 15/07 A3000 RMK AO2 LTG DSNT W SLP155 60004 T01500072 10200 20122 56004
TAF KBFL 222328Z 2300/2324 VRB05KT P6SM VCTS SCT035 BKN060CB FM230200 32011KT P6SM VCSH BKN035 FM231200 32006KT P6SM BKN045 FM231800 30008KT P6SM SCT050
  • No charts available